Time;durP1;ratioP1;P1;durP2;ratioP2;P2;SDS_P1;SDS_P2;PMS_P1;PMS_P2;Temp;Humidity;BMP_temperature;BMP_pressure;BME280_temperature;BME280_humidity;BME280_pressure;Samples;Min_cycle;Max_cycle;Signal;HPM_P1;HPM_P2
2022/11/12 00:00:18;;;;;;;5.97;5.15;;;;;;;12.59;100.00;100528.31;10051395;28;96878;-79
2022/11/12 00:05:21;;;;;;;7.53;5.22;;;;;;;12.56;100.00;100527.56;10052025;28;96916;-80
2022/11/12 00:10:24;;;;;;;8.18;5.80;;;;;;;12.57;100.00;100517.03;10051790;28;96657;-80
2022/11/12 00:15:28;;;;;;;8.45;5.72;;;;;;;12.50;100.00;100524.25;10051414;28;96893;-79
2022/11/12 00:20:32;;;;;;;9.68;5.88;;;;;;;12.44;100.00;100529.75;10050971;28;97105;-79
2022/11/12 00:25:35;;;;;;;7.00;5.70;;;;;;;12.43;100.00;100528.00;10050195;28;96693;-79
2022/11/12 00:30:40;;;;;;;7.05;5.38;;;;;;;12.42;100.00;100509.69;10056204;28;97651;-80
2022/11/12 00:35:44;;;;;;;7.38;5.45;;;;;;;12.39;100.00;100520.31;10057424;28;96685;-79
2022/11/12 00:40:47;;;;;;;7.38;5.50;;;;;;;12.40;100.00;100520.25;10057162;28;96918;-79
2022/11/12 00:45:51;;;;;;;7.10;5.22;;;;;;;12.44;100.00;100511.38;10057104;28;96735;-80
2022/11/12 00:51:00;;;;;;;7.55;5.07;;;;;;;12.43;100.00;100507.03;10057197;28;96922;-79
2022/11/12 00:56:05;;;;;;;7.25;4.60;;;;;;;12.43;100.00;100506.19;10056959;28;96811;-79
2022/11/12 01:01:13;;;;;;;5.50;4.72;;;;;;;12.45;100.00;100510.44;10057497;28;96723;-79
2022/11/12 01:06:19;;;;;;;8.25;5.10;;;;;;;12.40;100.00;100504.50;10056839;28;96602;-79
2022/11/12 01:11:24;;;;;;;6.30;4.55;;;;;;;12.42;100.00;100510.59;10056541;28;96807;-80
2022/11/12 01:16:32;;;;;;;6.80;4.65;;;;;;;12.42;100.00;100515.81;10055456;28;96658;-79
2022/11/12 01:21:38;;;;;;;8.82;5.07;;;;;;;12.39;100.00;100515.94;10056222;28;96566;-79
2022/11/12 01:26:42;;;;;;;5.97;4.03;;;;;;;12.40;100.00;100516.78;10056197;28;96750;-79
2022/11/12 01:31:46;;;;;;;7.78;4.90;;;;;;;12.42;100.00;100507.06;10055603;28;96897;-79
2022/11/12 01:36:50;;;;;;;8.65;4.80;;;;;;;12.42;100.00;100505.34;10055679;28;96733;-79
2022/11/12 01:41:53;;;;;;;7.00;4.55;;;;;;;12.44;100.00;100500.88;10053907;28;96798;-79
2022/11/12 01:47:02;;;;;;;7.68;4.60;;;;;;;12.44;100.00;100487.78;10055441;28;96664;-79
2022/11/12 01:52:13;;;;;;;6.82;4.63;;;;;;;12.37;100.00;100485.41;10056022;28;96582;-79
2022/11/12 01:57:21;;;;;;;6.68;4.95;;;;;;;12.36;100.00;100484.56;10055146;29;96621;-79
2022/11/12 02:02:27;;;;;;;6.97;5.30;;;;;;;12.38;100.00;100481.88;10054597;28;96857;-79
2022/11/12 02:07:32;;;;;;;6.65;4.60;;;;;;;12.26;100.00;100485.78;10053573;28;96884;-79
2022/11/12 02:17:54;;;;;;;6.60;5.32;;;;;;;12.25;100.00;100494.59;10022618;28;96987;-79
2022/11/12 02:22:59;;;;;;;7.05;5.25;;;;;;;12.31;100.00;100495.19;10054375;28;96780;-79
2022/11/12 02:28:06;;;;;;;8.30;5.25;;;;;;;12.19;100.00;100489.53;10054148;29;96813;-79
2022/11/12 02:33:09;;;;;;;8.07;5.65;;;;;;;12.06;100.00;100484.72;10054049;28;96833;-79
2022/11/12 02:38:14;;;;;;;8.45;6.22;;;;;;;11.99;100.00;100484.97;10053743;28;96768;-79
2022/11/12 02:43:17;;;;;;;9.65;6.97;;;;;;;12.02;100.00;100477.88;10054356;28;96810;-79
2022/11/12 02:48:20;;;;;;;8.75;6.22;;;;;;;11.96;100.00;100492.97;10053723;28;96730;-79
2022/11/12 02:53:25;;;;;;;9.93;6.63;;;;;;;11.95;100.00;100488.63;10053506;28;96855;-79
2022/11/12 02:58:29;;;;;;;8.10;6.25;;;;;;;11.95;100.00;100483.38;10052423;28;97224;-79
2022/11/12 03:03:32;;;;;;;8.77;6.05;;;;;;;11.97;100.00;100481.56;10053169;28;96832;-79
2022/11/12 03:08:37;;;;;;;9.23;6.00;;;;;;;11.95;100.00;100470.28;10053151;28;96852;-78
2022/11/12 03:13:40;;;;;;;7.75;6.20;;;;;;;11.83;100.00;100479.41;10052725;28;96846;-79
2022/11/12 03:18:44;;;;;;;7.47;5.55;;;;;;;11.78;100.00;100465.59;10052763;28;96748;-79
2022/11/12 03:23:48;;;;;;;10.00;5.80;;;;;;;11.87;100.00;100471.41;10052714;28;96707;-80
2022/11/12 03:28:52;;;;;;;8.13;5.15;;;;;;;11.93;100.00;100465.09;10052269;28;96859;-80
2022/11/12 03:33:55;;;;;;;12.30;5.30;;;;;;;11.95;100.00;100457.16;10053249;28;96640;-79
2022/11/12 03:39:00;;;;;;;8.40;5.30;;;;;;;11.90;100.00;100465.19;10052128;28;96976;-79
2022/11/12 03:44:03;;;;;;;7.32;4.90;;;;;;;11.86;100.00;100463.59;10052252;28;96880;-79
2022/11/12 03:49:06;;;;;;;6.30;4.75;;;;;;;11.80;100.00;100448.06;10051217;28;96654;-79
2022/11/12 03:54:11;;;;;;;6.78;5.40;;;;;;;11.76;100.00;100456.94;10051969;28;96756;-79
2022/11/12 03:59:14;;;;;;;6.78;5.00;;;;;;;11.76;100.00;100462.19;10051841;28;96798;-79
2022/11/12 04:04:18;;;;;;;6.70;5.07;;;;;;;11.70;100.00;100453.63;10055361;28;96741;-79
2022/11/12 04:09:22;;;;;;;7.65;4.90;;;;;;;11.65;100.00;100460.78;10058032;28;96743;-79
2022/11/12 04:14:26;;;;;;;5.95;4.63;;;;;;;11.68;100.00;100460.69;10057982;28;97582;-79
2022/11/12 04:30:18;;;;;;;5.30;4.43;;;;;;;11.59;100.00;100476.72;10057444;29;96864;-80
2022/11/12 04:35:24;;;;;;;7.53;5.00;;;;;;;11.55;100.00;100464.59;10057664;28;96750;-79
2022/11/12 04:45:51;;;;;;;7.82;5.25;;;;;;;11.56;100.00;100471.56;10057262;29;96743;-79
2022/11/12 04:50:59;;;;;;;6.63;4.68;;;;;;;11.59;100.00;100476.72;10057312;28;96740;-79
2022/11/12 04:56:04;;;;;;;6.22;4.30;;;;;;;11.60;100.00;100473.16;10057395;28;97795;-79
2022/11/12 05:01:07;;;;;;;6.88;4.97;;;;;;;11.63;100.00;100483.53;10057003;28;96825;-79
2022/11/12 05:11:29;;;;;;;6.57;4.22;;;;;;;11.71;100.00;100478.91;10056814;28;96964;-80
2022/11/12 05:16:32;;;;;;;6.07;4.20;;;;;;;11.73;100.00;100474.47;10056951;28;96872;-80
2022/11/12 05:26:57;;;;;;;6.38;4.50;;;;;;;11.69;100.00;100483.34;10055538;29;97211;-79
2022/11/12 05:32:01;;;;;;;6.43;4.30;;;;;;;11.64;100.00;100476.53;10055113;28;96816;-79
2022/11/12 05:37:06;;;;;;;6.47;4.50;;;;;;;11.60;100.00;100488.88;10055811;28;96793;-79
2022/11/12 05:42:11;;;;;;;6.18;4.60;;;;;;;11.57;100.00;100488.97;10055289;28;96866;-79
2022/11/12 05:47:16;;;;;;;5.53;3.83;;;;;;;11.54;100.00;100482.09;10055300;28;96671;-79
2022/11/12 05:52:19;;;;;;;5.93;3.78;;;;;;;11.57;100.00;100488.13;10055468;28;97053;-80
2022/11/12 05:57:27;;;;;;;6.07;3.95;;;;;;;11.54;100.00;100483.84;10055213;28;96870;-79
2022/11/12 06:02:30;;;;;;;4.95;3.72;;;;;;;11.53;100.00;100492.59;10054708;28;96647;-79
2022/11/12 06:07:33;;;;;;;5.88;3.88;;;;;;;11.51;100.00;100494.41;10055684;28;96843;-79
2022/11/12 06:12:38;;;;;;;5.18;3.35;;;;;;;11.52;100.00;100490.91;10054726;28;96698;-79
2022/11/12 06:17:42;;;;;;;5.13;3.75;;;;;;;11.52;100.00;100485.66;10054240;29;96864;-79
2022/11/12 06:22:45;;;;;;;13.10;4.65;;;;;;;11.48;100.00;100489.28;10053603;28;97675;-79
2022/11/12 06:27:50;;;;;;;4.65;4.03;;;;;;;11.45;100.00;100494.59;10053856;28;96890;-79
2022/11/12 06:32:53;;;;;;;7.53;3.97;;;;;;;11.38;100.00;100503.56;10053891;28;96809;-79
2022/11/12 06:37:56;;;;;;;6.00;4.40;;;;;;;11.37;100.00;100502.72;10053411;28;97574;-79
2022/11/12 06:43:01;;;;;;;5.75;4.30;;;;;;;11.31;100.00;100503.78;10053718;28;96625;-79
2022/11/12 06:48:04;;;;;;;6.38;4.07;;;;;;;11.25;100.00;100501.28;10053427;28;96874;-79
2022/11/12 06:53:08;;;;;;;6.20;3.80;;;;;;;11.31;100.00;100488.06;10053805;28;96651;-79
2022/11/12 06:58:12;;;;;;;5.00;3.88;;;;;;;11.24;100.00;100485.63;10054084;28;97341;-79
2022/11/12 07:03:16;;;;;;;7.22;4.13;;;;;;;11.22;100.00;100480.44;10053064;28;96726;-79
2022/11/12 07:08:19;;;;;;;5.13;4.25;;;;;;;11.22;100.00;100477.81;10053056;28;96790;-79
2022/11/12 07:13:24;;;;;;;5.15;3.90;;;;;;;11.23;100.00;100489.16;10051845;28;97510;-80
2022/11/12 07:18:28;;;;;;;5.53;4.05;;;;;;;11.23;100.00;100483.94;10052830;28;96645;-80
2022/11/12 07:23:34;;;;;;;5.87;4.27;;;;;;;11.19;100.00;100488.41;10052949;28;96725;-80
2022/11/12 07:28:38;;;;;;;5.03;4.00;;;;;;;11.20;100.00;100495.34;10052558;28;97226;-80
2022/11/12 07:33:43;;;;;;;5.93;4.25;;;;;;;11.22;100.00;100490.91;10052262;28;97085;-80
2022/11/12 07:38:46;;;;;;;4.90;4.10;;;;;;;11.20;100.00;100505.81;10055290;28;96857;-79
2022/11/12 07:43:53;;;;;;;5.43;3.90;;;;;;;11.29;100.00;100504.66;10059122;28;96605;-80
2022/11/12 07:48:56;;;;;;;5.85;4.07;;;;;;;11.29;100.00;100502.91;10059673;28;96835;-80
2022/11/12 07:54:00;;;;;;;6.47;3.63;;;;;;;11.33;100.00;100511.56;10059016;28;96766;-79
2022/11/12 07:59:04;;;;;;;9.20;5.13;;;;;;;11.35;100.00;100505.38;10058831;28;96802;-80
2022/11/12 08:04:09;;;;;;;6.20;4.45;;;;;;;11.36;100.00;100512.34;10058172;28;96876;-80
2022/11/12 08:09:12;;;;;;;6.95;4.88;;;;;;;11.47;100.00;100513.75;10058495;28;96694;-80
2022/11/12 08:14:17;;;;;;;7.97;5.32;;;;;;;11.56;100.00;100513.47;10058289;28;96836;-80
2022/11/12 08:19:20;;;;;;;8.27;5.25;;;;;;;11.73;100.00;100510.31;10058138;29;96879;-80
2022/11/12 08:24:24;;;;;;;8.48;6.00;;;;;;;11.92;100.00;100513.19;10057701;29;96856;-80
2022/11/12 08:29:28;;;;;;;8.07;5.70;;;;;;;12.02;100.00;100517.19;10057475;28;96965;-80
2022/11/12 08:34:32;;;;;;;7.80;5.40;;;;;;;12.11;100.00;100510.78;10057657;29;96791;-80
2022/11/12 08:39:35;;;;;;;9.52;6.82;;;;;;;12.22;100.00;100515.66;10058127;28;96846;-80
2022/11/12 08:44:40;;;;;;;6.68;5.32;;;;;;;12.31;100.00;100512.72;10057499;28;96772;-80
2022/11/12 08:49:43;;;;;;;7.88;5.55;;;;;;;12.40;100.00;100517.63;10056998;28;96783;-80
2022/11/12 08:54:50;;;;;;;6.97;5.70;;;;;;;12.52;100.00;100520.72;10056177;28;96816;-80
2022/11/12 08:59:54;;;;;;;9.82;6.43;;;;;;;12.61;100.00;100517.78;10057041;28;96731;-80
2022/11/12 09:04:58;;;;;;;10.18;6.80;;;;;;;12.71;100.00;100510.44;10056964;29;96811;-80
2022/11/12 09:10:01;;;;;;;8.52;5.78;;;;;;;12.77;100.00;100513.69;10056706;28;96659;-80
2022/11/12 09:15:07;;;;;;;8.77;6.45;;;;;;;12.85;100.00;100514.25;10056630;28;96725;-80
2022/11/12 09:20:31;;;;;;;6.80;5.13;;;;;;;12.93;100.00;100521.03;10055982;28;96879;-80
2022/11/12 09:25:35;;;;;;;8.55;5.65;;;;;;;12.96;100.00;100521.78;10056110;28;96817;-80
2022/11/12 09:30:45;;;;;;;9.13;6.00;;;;;;;12.99;100.00;100505.03;10056386;28;97077;-80
2022/11/12 09:35:49;;;;;;;8.32;5.82;;;;;;;13.03;100.00;100511.88;10056099;29;96675;-80
2022/11/12 09:41:10;;;;;;;7.70;5.47;;;;;;;13.05;100.00;100512.69;10055690;28;96635;-80
2022/11/12 09:46:36;;;;;;;7.50;5.38;;;;;;;13.07;100.00;100508.22;10054572;28;96829;-80
2022/11/12 09:51:43;;;;;;;8.15;5.75;;;;;;;13.11;100.00;100509.81;10055469;28;96743;-80
2022/11/12 09:56:48;;;;;;;5.85;4.45;;;;;;;13.17;100.00;100503.47;10054985;28;96916;-80
2022/11/12 10:02:00;;;;;;;7.55;5.10;;;;;;;13.23;100.00;100497.97;10053943;28;96755;-80
2022/11/12 10:07:11;;;;;;;6.32;4.65;;;;;;;13.32;100.00;100494.13;10054972;28;96735;-80
2022/11/12 10:12:33;;;;;;;7.28;4.35;;;;;;;13.38;100.00;100496.53;10055124;28;96734;-80
2022/11/12 10:17:46;;;;;;;6.25;4.25;;;;;;;13.41;100.00;100501.66;10054662;28;96857;-80
2022/11/12 10:23:06;;;;;;;5.82;3.75;;;;;;;13.58;100.00;100499.19;10055143;28;96687;-80
2022/11/12 10:28:22;;;;;;;6.57;4.55;;;;;;;13.60;100.00;100486.88;10054527;28;97452;-80
2022/11/12 10:33:31;;;;;;;6.60;4.25;;;;;;;13.75;100.00;100481.91;10054269;28;96762;-81
2022/11/12 10:38:36;;;;;;;5.63;4.28;;;;;;;13.76;100.00;100479.22;10053863;28;97532;-83
2022/11/12 10:43:52;;;;;;;;;;;;;;;13.79;100.00;100481.72;10064068;28;98514;-87
2022/11/12 10:49:02;;;;;;;7.15;4.40;;;;;;;13.82;100.00;100481.56;10069084;28;96955;-87
2022/11/12 10:54:30;;;;;;;7.22;4.50;;;;;;;13.94;100.00;100482.81;10056326;28;98050;-86
2022/11/12 11:00:09;;;;;;;6.57;4.72;;;;;;;13.98;100.00;100467.78;10067676;28;96843;-81
2022/11/12 11:05:50;;;;;;;8.77;4.88;;;;;;;14.11;100.00;100465.50;10064570;28;96921;-87
2022/11/12 11:11:22;;;;;;;7.45;4.68;;;;;;;14.27;100.00;100468.31;10072212;28;96997;-88
2022/11/12 11:16:30;;;;;;;8.57;5.00;;;;;;;14.27;100.00;100460.41;10061840;28;96719;-90
2022/11/12 11:22:05;;;;;;;7.13;4.78;;;;;;;14.29;100.00;100459.41;10052401;28;96914;-81
2022/11/12 11:27:17;;;;;;;5.93;4.70;;;;;;;14.37;100.00;100453.84;10050364;28;97027;-82
2022/11/12 11:32:33;;;;;;;6.63;4.05;;;;;;;14.50;100.00;100446.25;10037691;28;98756;-84
2022/11/12 11:38:03;;;;;;;7.43;4.10;;;;;;;14.63;100.00;100442.16;10061337;28;97303;-83
2022/11/12 11:44:04;;;;;;;;;;;;;;;;;;;;;
2022/11/12 11:50:19;;;;;;;5.82;4.25;;;;;;;14.79;100.00;100428.28;10060632;28;97421;-90
2022/11/12 11:56:02;;;;;;;5.60;3.90;;;;;;;14.97;100.00;100423.91;10058041;28;96944;-89
2022/11/12 12:02:02;;;;;;;6.10;3.78;;;;;;;15.03;100.00;100418.38;9930841;29;97002;-92
2022/11/12 12:19:01;;;;;;;5.97;4.10;;;;;;;15.32;100.00;100391.47;10058998;28;97453;-84
2022/11/12 12:24:35;;;;;;;6.00;3.80;;;;;;;15.53;100.00;100388.69;10080293;28;97022;-85
2022/11/12 12:41:46;;;;;;;5.60;4.22;;;;;;;16.77;100.00;100361.97;10013671;28;99046;-81
2022/11/12 12:46:56;;;;;;;6.07;3.80;;;;;;;17.24;100.00;100352.28;10065163;28;97078;-84
2022/11/12 12:57:39;;;;;;;6.63;3.67;;;;;;;18.44;100.00;100329.97;11244509;23;99171;-73
2022/11/12 13:02:43;;;;;;;5.05;3.60;;;;;;;18.81;100.00;100332.94;10087642;28;97438;-75
2022/11/12 13:07:49;;;;;;;5.85;3.83;;;;;;;18.75;100.00;100317.41;10084633;28;96890;-75
2022/11/12 13:13:04;;;;;;;5.80;3.67;;;;;;;18.24;100.00;100312.72;10079310;28;97900;-74
2022/11/12 13:18:09;;;;;;;6.40;3.72;;;;;;;18.25;100.00;100318.88;10086225;28;98626;-75
2022/11/12 13:29:39;;;;;;;6.22;3.78;;;;;;;19.07;100.00;100306.53;10067614;28;96833;-74
2022/11/12 13:34:43;;;;;;;5.75;3.50;;;;;;;19.23;100.00;100298.41;10078246;28;96932;-73
2022/11/12 13:39:47;;;;;;;5.33;3.93;;;;;;;18.40;100.00;100296.72;10087926;28;98244;-74
2022/11/12 13:44:51;;;;;;;6.80;4.23;;;;;;;19.57;100.00;100293.44;10066367;28;97408;-73
2022/11/12 13:50:01;;;;;;;7.55;3.85;;;;;;;20.02;100.00;100283.25;10088352;28;97810;-73
2022/11/12 13:55:07;;;;;;;7.47;4.10;;;;;;;20.37;100.00;100270.13;10079134;28;97401;-72
2022/11/12 14:00:24;;;;;;;6.03;3.88;;;;;;;20.53;100.00;100266.34;10089129;28;97333;-73
2022/11/12 14:05:29;;;;;;;5.78;3.88;;;;;;;21.07;100.00;100259.72;10085585;28;96903;-73
2022/11/12 14:10:41;;;;;;;5.28;3.88;;;;;;;21.21;100.00;100250.69;10087533;28;98808;-73
2022/11/12 14:16:08;;;;;;;7.13;3.80;;;;;;;20.36;100.00;100254.28;10078524;28;97514;-72
2022/11/12 14:21:15;;;;;;;5.93;3.72;;;;;;;20.49;100.00;100232.97;10082010;28;97171;-72
2022/11/12 14:26:35;;;;;;;5.95;4.00;;;;;;;20.60;100.00;100229.53;10085450;28;98796;-72
2022/11/12 14:31:40;;;;;;;5.57;3.80;;;;;;;21.13;100.00;100220.19;10084890;28;98970;-72
2022/11/12 14:36:46;;;;;;;7.47;4.53;;;;;;;21.60;100.00;100213.94;10079377;28;97471;-73
2022/11/12 14:41:49;;;;;;;5.82;4.15;;;;;;;21.59;100.00;100207.78;10068493;28;97036;-72
2022/11/12 14:46:55;;;;;;;5.90;4.07;;;;;;;21.39;100.00;100200.53;10085403;28;97184;-72
2022/11/12 14:52:07;;;;;;;5.20;3.78;;;;;;;21.76;100.00;100201.16;10077261;28;97017;-72
2022/11/12 14:57:18;;;;;;;7.18;4.78;;;;;;;22.14;100.00;100191.88;10085405;28;96934;-73
2022/11/12 15:02:27;;;;;;;9.18;5.25;;;;;;;22.13;100.00;100189.38;10087701;28;98671;-73
2022/11/12 15:07:55;;;;;;;8.23;5.07;;;;;;;21.79;100.00;100192.91;10084810;28;97073;-73
2022/11/12 15:13:05;;;;;;;7.43;5.05;;;;;;;21.82;100.00;100182.03;10088454;28;97001;-73
2022/11/12 15:18:17;;;;;;;7.65;5.93;;;;;;;21.47;100.00;100180.34;10083504;28;97625;-74
2022/11/12 15:23:20;;;;;;;8.38;5.50;;;;;;;21.18;100.00;100177.28;10066006;28;96863;-73
2022/11/12 15:28:26;;;;;;;8.70;5.28;;;;;;;20.98;100.00;100170.88;10080669;28;98723;-73
2022/11/12 15:33:30;;;;;;;8.55;5.65;;;;;;;21.08;100.00;100182.47;10079546;28;97535;-74
2022/11/12 15:38:36;;;;;;;7.47;5.80;;;;;;;21.23;100.00;100174.28;10076051;28;96786;-74
2022/11/12 15:43:42;;;;;;;7.53;4.95;;;;;;;20.94;100.00;100185.34;10076775;28;96807;-74
2022/11/12 15:48:46;;;;;;;10.15;6.03;;;;;;;20.10;100.00;100184.50;10082282;28;96904;-74
2022/11/12 15:53:57;;;;;;;9.05;5.55;;;;;;;19.54;100.00;100182.25;10080558;28;97027;-74
2022/11/12 15:59:01;;;;;;;10.30;6.70;;;;;;;19.24;100.00;100179.03;10083963;28;96847;-74
2022/11/12 16:04:05;;;;;;;11.48;6.88;;;;;;;19.18;100.00;100175.94;10091244;28;97190;-75
2022/11/12 16:09:08;;;;;;;11.95;7.53;;;;;;;19.15;100.00;100170.84;10095812;28;96884;-74
2022/11/12 16:14:14;;;;;;;10.57;7.50;;;;;;;19.06;100.00;100181.13;10091929;28;97491;-75
2022/11/12 16:19:19;;;;;;;13.30;8.35;;;;;;;18.81;100.00;100179.28;10095615;28;96857;-75
2022/11/12 16:24:22;;;;;;;12.52;8.30;;;;;;;18.64;100.00;100175.09;10095239;28;96868;-74
2022/11/12 16:29:25;;;;;;;11.43;7.57;;;;;;;18.56;100.00;100179.22;10091591;28;97012;-74
2022/11/12 16:34:30;;;;;;;16.15;9.00;;;;;;;18.41;100.00;100176.63;10075382;28;96973;-74
2022/11/12 16:39:33;;;;;;;18.98;12.15;;;;;;;18.18;100.00;100175.47;10097399;28;96792;-75
2022/11/12 16:44:37;;;;;;;20.83;14.23;;;;;;;17.96;100.00;100178.69;10087991;28;96884;-75
2022/11/12 16:49:42;;;;;;;21.60;16.63;;;;;;;17.73;100.00;100175.66;10089859;28;97716;-74
2022/11/12 16:54:45;;;;;;;31.02;19.75;;;;;;;17.50;100.00;100174.44;10073709;28;97057;-75
2022/11/12 16:59:48;;;;;;;24.27;16.80;;;;;;;17.24;100.00;100183.13;10085437;28;97218;-77
2022/11/12 17:04:53;;;;;;;24.02;17.40;;;;;;;16.98;100.00;100193.47;10082158;28;97041;-75
2022/11/12 17:09:55;;;;;;;;;;;;;;;16.70;100.00;100199.50;10081583;28;96912;-76
2022/11/12 17:14:59;;;;;;;29.00;20.20;;;;;;;16.50;100.00;100204.16;10082639;28;98200;-79
2022/11/12 17:20:04;;;;;;;27.13;18.73;;;;;;;16.35;100.00;100216.44;10075340;28;98347;-77
2022/11/12 17:25:08;;;;;;;36.40;23.80;;;;;;;16.17;100.00;100220.09;10083798;28;98574;-81
2022/11/12 17:30:13;;;;;;;33.53;21.77;;;;;;;16.05;100.00;100218.97;10077777;28;99096;-75
2022/11/12 17:35:17;;;;;;;35.80;23.92;;;;;;;15.95;100.00;100231.00;10075779;28;97386;-74
2022/11/12 17:40:20;;;;;;;32.90;23.90;;;;;;;15.84;100.00;100242.97;10084202;28;98341;-74
2022/11/12 17:45:24;;;;;;;36.28;23.30;;;;;;;15.71;100.00;100247.22;10074142;28;97577;-73
2022/11/12 17:50:28;;;;;;;38.75;24.67;;;;;;;15.69;100.00;100260.47;10107491;28;97802;-74
2022/11/12 17:55:32;;;;;;;34.42;24.40;;;;;;;15.57;100.00;100263.72;10134003;28;96649;-74
2022/11/12 18:00:36;;;;;;;36.25;25.83;;;;;;;15.47;100.00;100267.75;10126847;28;96597;-74
2022/11/12 18:05:41;;;;;;;;;;;;;;;15.29;100.00;100265.16;10094781;28;96683;-74
2022/11/12 18:10:44;;;;;;;43.45;27.65;;;;;;;15.27;100.00;100276.72;10094138;28;96633;-74
2022/11/12 18:15:47;;;;;;;40.03;27.05;;;;;;;15.22;100.00;100270.81;10094661;28;96873;-74
2022/11/12 18:20:52;;;;;;;36.42;25.90;;;;;;;15.12;100.00;100280.97;10092149;28;96899;-74
2022/11/12 18:25:55;;;;;;;37.90;27.38;;;;;;;15.02;100.00;100280.56;10093226;28;96969;-74
2022/11/12 18:31:00;;;;;;;43.95;27.92;;;;;;;14.96;100.00;100286.16;10092438;28;96755;-74
2022/11/12 18:36:05;;;;;;;;;;;;;;;14.82;100.00;100280.69;10093206;28;96769;-74
2022/11/12 18:41:11;;;;;;;34.83;24.40;;;;;;;14.80;100.00;100286.06;10130827;28;96751;-74
2022/11/12 18:46:14;;;;;;;34.85;23.67;;;;;;;14.77;100.00;100294.09;10132436;28;97337;-74
2022/11/12 18:51:19;;;;;;;30.15;21.38;;;;;;;14.68;100.00;100298.03;10108380;28;96884;-74
2022/11/12 18:56:23;;;;;;;30.00;20.90;;;;;;;14.56;100.00;100302.09;10052591;28;96977;-74
2022/11/12 19:01:26;;;;;;;32.47;21.85;;;;;;;14.52;100.00;100300.56;10053636;29;96747;-74
2022/11/12 19:06:30;;;;;;;32.35;22.13;;;;;;;14.52;100.00;100297.94;10053576;28;96888;-74
2022/11/12 19:11:34;;;;;;;29.63;21.45;;;;;;;14.49;100.00;100302.47;10054020;28;97011;-74
2022/11/12 19:16:41;;;;;;;33.67;22.85;;;;;;;14.44;100.00;100301.84;10053151;28;96796;-74
2022/11/12 19:21:47;;;;;;;33.28;21.17;;;;;;;14.40;100.00;100298.47;10065499;28;97779;-74
2022/11/12 19:26:50;;;;;;;34.22;22.50;;;;;;;14.36;100.00;100308.28;10090227;28;96846;-74
2022/11/12 19:31:54;;;;;;;34.00;24.27;;;;;;;14.31;100.00;100319.94;10093081;28;96765;-74
2022/11/12 19:36:58;;;;;;;32.05;23.70;;;;;;;14.26;100.00;100311.41;10104595;28;96849;-73
2022/11/12 19:42:22;;;;;;;37.50;24.93;;;;;;;14.23;100.00;100320.28;10104827;28;96913;-74
2022/11/12 19:47:25;;;;;;;40.47;25.52;;;;;;;14.22;100.00;100323.00;10104448;28;96589;-73
2022/11/12 19:52:29;;;;;;;36.45;25.25;;;;;;;14.18;100.00;100325.75;10104350;28;96865;-73
2022/11/12 19:57:33;;;;;;;38.15;25.40;;;;;;;14.14;100.00;100318.94;10104604;28;96889;-74
2022/11/12 20:02:36;;;;;;;33.60;23.77;;;;;;;14.07;100.00;100316.66;10074705;28;97039;-73
2022/11/12 20:07:40;;;;;;;31.65;22.33;;;;;;;14.02;100.00;100323.88;10064485;29;96839;-74
2022/11/12 20:12:44;;;;;;;32.28;20.52;;;;;;;14.12;100.00;100322.56;10063776;28;96797;-73
2022/11/12 20:17:47;;;;;;;28.85;20.38;;;;;;;14.16;100.00;100324.13;10065037;28;96895;-74
2022/11/12 20:22:52;;;;;;;28.10;19.85;;;;;;;14.16;100.00;100326.78;10109238;28;97127;-74
2022/11/12 20:27:55;;;;;;;26.05;19.08;;;;;;;14.16;100.00;100324.13;10142856;28;96650;-73
2022/11/12 20:32:58;;;;;;;30.40;19.50;;;;;;;14.19;100.00;100323.97;10140502;28;97062;-74
2022/11/12 20:38:03;;;;;;;29.33;18.73;;;;;;;14.17;100.00;100317.94;10103503;28;96876;-73
2022/11/12 20:43:06;;;;;;;;;;;;;;;14.00;100.00;100319.56;10103255;28;96998;-73
2022/11/12 20:48:09;;;;;;;29.70;19.80;;;;;;;13.92;100.00;100329.56;10097137;28;97640;-73
2022/11/12 20:53:13;;;;;;;30.67;19.88;;;;;;;13.79;100.00;100320.50;10096429;28;97077;-74
2022/11/12 20:58:17;;;;;;;29.67;19.33;;;;;;;13.72;100.00;100327.81;10095689;28;96696;-73
2022/11/12 21:03:20;;;;;;;25.77;17.23;;;;;;;13.75;100.00;100332.09;10095474;28;96664;-73
2022/11/12 21:08:25;;;;;;;24.10;16.67;;;;;;;13.70;100.00;100324.41;10095008;28;96832;-74
2022/11/12 21:13:29;;;;;;;26.17;17.58;;;;;;;13.75;100.00;100332.09;10095961;28;96705;-73
2022/11/12 21:18:33;;;;;;;25.15;18.30;;;;;;;13.77;100.00;100340.75;10095873;28;96703;-74
2022/11/12 21:23:39;;;;;;;27.88;18.13;;;;;;;13.68;100.00;100346.44;10124106;28;96996;-73
2022/11/12 21:28:43;;;;;;;25.38;18.90;;;;;;;13.60;100.00;100350.25;10095491;28;96747;-74
2022/11/12 21:33:49;;;;;;;28.07;19.07;;;;;;;13.55;100.00;100357.47;10095350;28;96742;-74
2022/11/12 21:38:54;;;;;;;29.70;20.00;;;;;;;13.52;100.00;100352.34;10096041;28;97304;-74
2022/11/12 21:43:57;;;;;;;;;;;;;;;13.43;100.00;100352.72;10094201;28;96827;-73
2022/11/12 21:49:00;;;;;;;27.33;18.23;;;;;;;13.46;100.00;100351.75;10095002;28;96960;-73
2022/11/12 21:54:06;;;;;;;21.60;16.67;;;;;;;13.44;100.00;100349.16;10093617;28;97097;-74
2022/11/12 21:59:09;;;;;;;25.63;18.10;;;;;;;13.47;100.00;100353.47;10082277;28;97003;-74
2022/11/12 22:04:12;;;;;;;27.73;17.85;;;;;;;13.52;100.00;100346.25;10055308;29;97287;-73
2022/11/12 22:09:21;;;;;;;27.20;17.88;;;;;;;13.52;100.00;100346.25;10054933;28;96717;-73
2022/11/12 22:14:25;;;;;;;25.88;17.30;;;;;;;13.50;100.00;100337.53;10055033;28;96612;-73
2022/11/12 22:19:28;;;;;;;24.83;18.42;;;;;;;13.48;100.00;100340.25;10055282;28;96954;-74
2022/11/12 22:24:33;;;;;;;22.30;17.05;;;;;;;13.42;100.00;100337.88;10125914;28;96850;-74
2022/11/12 22:29:36;;;;;;;23.50;17.27;;;;;;;13.40;100.00;100342.34;10097624;28;96793;-74
2022/11/12 22:34:39;;;;;;;23.88;17.08;;;;;;;13.30;100.00;100341.03;10092669;28;96830;-74
2022/11/12 22:39:49;;;;;;;27.88;18.85;;;;;;;13.13;100.00;100354.84;10093225;28;96832;-74
2022/11/12 22:44:52;;;;;;;25.15;18.55;;;;;;;13.00;100.00;100351.88;10092140;28;96937;-73
2022/11/12 22:49:55;;;;;;;24.95;17.38;;;;;;;13.00;100.00;100359.75;10092008;28;96708;-74
2022/11/12 22:54:59;;;;;;;23.67;17.13;;;;;;;12.99;100.00;100353.63;10092631;28;96837;-73
2022/11/12 23:00:08;;;;;;;23.50;16.73;;;;;;;13.09;100.00;100354.13;10092573;28;97277;-74
2022/11/12 23:05:11;;;;;;;21.60;15.82;;;;;;;13.09;100.00;100348.88;10092233;28;97241;-73
2022/11/12 23:10:16;;;;;;;20.85;15.77;;;;;;;13.06;100.00;100351.63;10091338;28;96645;-74
2022/11/12 23:15:19;;;;;;;23.15;16.63;;;;;;;12.99;100.00;100345.75;10092032;28;97110;-74
2022/11/12 23:20:22;;;;;;;24.08;17.02;;;;;;;12.96;100.00;100355.53;10092921;28;96913;-73
2022/11/12 23:25:27;;;;;;;23.40;16.00;;;;;;;12.93;100.00;100358.31;10098610;28;96660;-74
2022/11/12 23:30:30;;;;;;;23.58;16.20;;;;;;;12.86;100.00;100355.88;10091910;28;96822;-74
2022/11/12 23:35:33;;;;;;;24.77;18.45;;;;;;;12.80;100.00;100353.47;10090858;28;96881;-73
2022/11/12 23:40:38;;;;;;;26.60;17.40;;;;;;;12.80;100.00;100350.84;10090302;28;96777;-74
2022/11/12 23:45:42;;;;;;;19.85;14.35;;;;;;;12.83;100.00;100353.34;10091612;28;97046;-74
2022/11/12 23:50:46;;;;;;;21.42;16.25;;;;;;;12.91;100.00;100344.34;10091320;28;96733;-73
2022/11/12 23:55:51;;;;;;;26.60;17.52;;;;;;;12.92;100.00;100343.44;10090599;28;97140;-74
